Quetta Weather



Quetta's Current Weather

Temprature 18.596o clear sky

clear sky

Rain: 0 %

Min Temprature18.596o
Max Temprature18.596o
Humidity27
Wind Speed2.42 m/h
Sun Rise05:58:54
Sun Set19:02:11
Current Time: 21-Apr-2019 06:22:33
Lat/Lon: 30.19, 67.02




Quetta's Geo Location



Quetta's Weather Forecast

Time Overall Temp Min Temp Max Temp Humidity Wind Speed Rain
21-Apr-2019 (Sun)
08:00:00 clear sky 21.190 21.189 21.190 24 1.98 m/h 0 %
11:00:00 clear sky 25.350 25.350 25.350 17 2.62 m/h 0 %
14:00:00 clear sky 27.550 27.550 27.550 11 2.18 m/h 0 %
17:00:00 clear sky 28.150 28.150 28.150 9 2.57 m/h 0 %
20:00:00 clear sky 25.250 25.250 25.250 18 0.6 m/h 0 %
23:00:00 clear sky 23.360 23.360 23.360 21 3.63 m/h 0 %
22-Apr-2019 (Mon)
02:00:00 clear sky 20.670 20.670 20.670 29 1.1 m/h 0 %
05:00:00 clear sky 18.904 18.904 18.904 30 1.28 m/h 0 %
08:00:00 clear sky 21.836 21.836 21.836 22 1.89 m/h 0 %
11:00:00 clear sky 25.220 25.220 25.220 13 0.2 m/h 0 %
14:00:00 clear sky 27.315 27.315 27.315 11 1.02 m/h 0 %
17:00:00 clear sky 27.931 27.931 27.931 10 0.97 m/h 0 %
20:00:00 scattered clouds 26.350 26.350 26.350 13 1.98 m/h 0 %
23:00:00 broken clouds 24.496 24.496 24.496 16 2.26 m/h 0 %
23-Apr-2019 (Tue)
02:00:00 scattered clouds 22.077 22.077 22.077 19 2.58 m/h 0 %
05:00:00 few clouds 20.516 20.516 20.516 19 2.34 m/h 0 %
08:00:00 clear sky 22.997 22.997 22.997 16 1.58 m/h 0 %
11:00:00 few clouds 26.050 26.050 26.050 15 2.52 m/h 0 %
14:00:00 overcast clouds 28.750 28.750 28.750 14 3.93 m/h 0 %
17:00:00 overcast clouds 28.850 28.850 28.850 15 5.58 m/h 0 %
20:00:00 clear sky 25.928 25.928 25.928 21 5.19 m/h 0 %
23:00:00 scattered clouds 23.250 23.250 23.250 30 2.31 m/h 0 %
24-Apr-2019 (Wed)
02:00:00 scattered clouds 21.882 21.882 21.882 31 2.23 m/h 0 %
05:00:00 light rain 18.894 18.894 18.894 43 4.06 m/h 56 %
08:00:00 overcast clouds 19.250 19.250 19.250 44 1.02 m/h 0 %
11:00:00 broken clouds 23.308 23.308 23.308 33 2.87 m/h 0 %
14:00:00 scattered clouds 26.650 26.650 26.650 22 8.54 m/h 0 %
17:00:00 scattered clouds 24.750 24.750 24.750 22 8.03 m/h 0 %
20:00:00 clear sky 21.455 21.455 21.455 22 4.25 m/h 0 %
23:00:00 clear sky 19.245 19.245 19.245 28 0.87 m/h 0 %
25-Apr-2019 (Thu)
02:00:00 clear sky 17.150 17.150 17.150 33 1.01 m/h 0 %
05:00:00 clear sky 15.262 15.262 15.262 36 0.95 m/h 0 %
08:00:00 clear sky 16.520 16.520 16.520 29 0.95 m/h 0 %
11:00:00 clear sky 19.790 19.790 19.790 22 1.41 m/h 0 %
14:00:00 clear sky 22.950 22.950 22.950 17 3.51 m/h 0 %
17:00:00 clear sky 23.311 23.311 23.311 14 4.43 m/h 0 %
20:00:00 clear sky 21.225 21.225 21.225 17 2.89 m/h 0 %
23:00:00 clear sky 19.043 19.043 19.043 22 0.63 m/h 0 %
26-Apr-2019 (Fri)
02:00:00 clear sky 16.932 16.932 16.932 24 1.23 m/h 0 %
05:00:00 clear sky 15.476 15.476 15.476 24 2.67 m/h 0 %


Quetta's Tourist Spots

Historical Places in Quetta

Famous Cities (60)